This is the latest recevied weather packets stored in our database for station/object DG8SF-13. If no packets are shown the sender has not sent any weather packets the latest 10 day(s).
| Time | Temp. | Humidity | Pressure | Rain* | Wind** | Luminosity | Snow |
|---|---|---|---|---|---|---|---|
| 1777501539 | 8.33° C | 41% | 1024 hPa | 0 mm | - | - | - |
| 1777500284 | 8.89° C | 40% | 1023.9 hPa | 0 mm | - | - | - |
| 1777499660 | 9.44° C | 39% | 1023.7 hPa | 0 mm | - | - | - |
| 1777499347 | 9.44° C | 38% | 1023.6 hPa | 0 mm | - | - | - |
| 1777498723 | 9.44° C | 39% | 1023.6 hPa | 0 mm | - | - | - |
| 1777498414 | 9.44° C | 39% | 1023.5 hPa | 0 mm | - | - | - |
| 1777497789 | 10° C | 39% | 1023.4 hPa | 0 mm | - | - | - |
| 1777497475 | 10° C | 39% | 1023.3 hPa | 0 mm | - | - | - |
| 1777497165 | 10° C | 39% | 1023.3 hPa | 0 mm | - | - | - |
| 1777496851 | 10° C | 38% | 1023.2 hPa | 0 mm | - | - | - |
| 1777496541 | 10° C | 38% | 1023.2 hPa | 0 mm | - | - | - |
| 1777494044 | 11.11° C | 35% | 1022.8 hPa | 0 mm | - | - | - |
| 1777491547 | 11.67° C | 35% | 1022.3 hPa | 0 mm | - | - | - |
| 1777491238 | 11.67° C | 35% | 1022.2 hPa | 0 mm | - | - | - |
| 1777490923 | 11.67° C | 34% | 1022.2 hPa | 0 mm | - | - | - |
| 1777490611 | 11.67° C | 34% | 1022.2 hPa | 0 mm | - | - | - |
| 1777490299 | 11.67° C | 34% | 1022.1 hPa | 0 mm | - | - | - |
| 1777489990 | 12.22° C | 33% | 1022 hPa | 0 mm | - | - | - |
| 1777489676 | 12.22° C | 33% | 1021.9 hPa | 0 mm | - | - | - |
| 1777489052 | 12.22° C | 32% | 1021.8 hPa | 0 mm | - | - | - |
| 1777487816 | 12.78° C | 31% | 1021.5 hPa | 0 mm | - | - | - |
| 1777487505 | 12.78° C | 31% | 1021.3 hPa | 0 mm | - | - | - |
| 1777486882 | 13.33° C | 31% | 1021.3 hPa | 0 mm | - | - | - |
| 1777486567 | 13.33° C | 31% | 1021.1 hPa | 0 mm | - | - | - |
| 1777486269 | 13.89° C | 30% | 1021 hPa | 0 mm | - | - | - |
* Rain latest hour (hover to see other rain measurements)
** Current wind speed in m/s (hover to see current wind gust speed)